createdAt,value
2022-12-31T00:02:01.225Z,9.51
2022-12-31T00:04:28.845Z,9.56
2022-12-31T00:06:56.624Z,9.65
2022-12-31T00:09:24.380Z,9.47
2022-12-31T00:11:52.214Z,9.42
2022-12-31T00:14:19.587Z,9.48
2022-12-31T00:16:46.955Z,9.68
2022-12-31T00:19:14.395Z,9.56
2022-12-31T00:21:43.474Z,9.58
2022-12-31T00:24:11.696Z,9.39
2022-12-31T00:26:39.034Z,9.27
2022-12-31T00:29:06.572Z,9.31
2022-12-31T00:31:35.713Z,9.25
2022-12-31T00:34:03.820Z,9.27
2022-12-31T00:36:42.625Z,9.37
2022-12-31T00:39:10.910Z,9.24
2022-12-31T00:41:38.287Z,9.34
2022-12-31T00:44:05.688Z,9.42
2022-12-31T00:46:33.150Z,9.42
2022-12-31T00:49:01.503Z,9.35
2022-12-31T00:51:29.371Z,9.36
2022-12-31T00:53:57.476Z,9.41
2022-12-31T00:56:26.254Z,9.42
2022-12-31T00:58:54.462Z,9.41
2022-12-31T01:01:26.666Z,9.48
2022-12-31T01:03:56.859Z,9.49
2022-12-31T01:06:24.769Z,9.52
2022-12-31T01:08:53.405Z,9.53
2022-12-31T01:11:22.762Z,9.46
2022-12-31T01:13:58.739Z,9.51
2022-12-31T01:16:33.124Z,9.45
2022-12-31T01:19:03.264Z,9.39
2022-12-31T01:21:30.689Z,9.34
2022-12-31T01:23:58.733Z,9.27
2022-12-31T01:26:26.709Z,9.26
2022-12-31T01:28:54.038Z,9.25
2022-12-31T01:31:22.000Z,9.19
2022-12-31T01:33:51.425Z,9.15
2022-12-31T01:36:25.588Z,9.00
2022-12-31T01:38:54.743Z,9.02
2022-12-31T01:41:24.560Z,8.98
2022-12-31T01:43:58.796Z,8.94
2022-12-31T01:46:26.199Z,8.98
2022-12-31T01:48:55.986Z,8.90
2022-12-31T01:51:25.703Z,8.92
2022-12-31T01:53:53.803Z,8.74
2022-12-31T01:56:23.042Z,8.81
2022-12-31T01:58:51.767Z,8.75
2022-12-31T02:01:23.148Z,8.81
2022-12-31T02:03:52.447Z,8.96
2022-12-31T02:06:21.800Z,8.93
2022-12-31T02:08:49.180Z,8.91
2022-12-31T02:11:27.911Z,8.72
2022-12-31T02:13:58.947Z,8.64
2022-12-31T02:16:53.330Z,8.86
2022-12-31T02:19:23.485Z,8.90
2022-12-31T02:21:55.833Z,8.83
2022-12-31T02:24:40.254Z,8.90
2022-12-31T02:27:19.897Z,9.00
2022-12-31T02:29:47.793Z,9.10
2022-12-31T02:32:22.877Z,8.97
2022-12-31T02:34:56.985Z,8.96
2022-12-31T02:37:26.838Z,9.11
2022-12-31T02:39:54.956Z,9.09
2022-12-31T02:42:22.283Z,9.07
2022-12-31T02:44:49.638Z,9.12
2022-12-31T02:47:31.523Z,9.29
2022-12-31T02:50:05.157Z,9.04
2022-12-31T02:52:38.672Z,9.16
2022-12-31T02:55:13.663Z,9.18
2022-12-31T02:57:56.859Z,9.16
2022-12-31T03:00:43.253Z,9.29
2022-12-31T03:03:10.778Z,9.57
2022-12-31T03:05:41.261Z,9.41
2022-12-31T03:08:08.921Z,9.34
2022-12-31T03:10:36.813Z,9.33
2022-12-31T03:13:04.159Z,9.21
2022-12-31T03:15:32.717Z,9.35
2022-12-31T03:18:00.115Z,9.25
2022-12-31T03:20:50.771Z,9.35
2022-12-31T03:23:37.806Z,9.36
2022-12-31T03:26:12.487Z,9.44
2022-12-31T03:28:41.614Z,9.43
2022-12-31T03:31:09.611Z,9.42
2022-12-31T03:33:40.407Z,9.46
2022-12-31T03:36:10.075Z,9.39
2022-12-31T03:38:38.401Z,9.29
2022-12-31T03:41:05.771Z,9.36
2022-12-31T03:43:33.110Z,9.32
2022-12-31T03:46:01.795Z,9.23
2022-12-31T03:48:29.736Z,9.26
2022-12-31T03:50:57.564Z,9.16
2022-12-31T03:53:25.399Z,9.21
2022-12-31T03:55:53.304Z,9.33
2022-12-31T03:58:21.529Z,9.34
2022-12-31T04:00:49.318Z,9.32
2022-12-31T04:03:17.009Z,9.27
2022-12-31T04:05:44.444Z,9.26
2022-12-31T04:08:11.873Z,9.31
2022-12-31T04:10:40.158Z,9.32
2022-12-31T04:13:07.830Z,9.39
2022-12-31T04:15:35.199Z,9.12
2022-12-31T04:18:02.620Z,9.32
2022-12-31T04:20:30.408Z,9.46
2022-12-31T04:22:58.340Z,9.39
2022-12-31T04:25:25.645Z,9.18
2022-12-31T04:27:53.056Z,9.37
2022-12-31T04:30:20.375Z,9.25
2022-12-31T04:32:47.708Z,9.39
2022-12-31T04:35:15.009Z,9.53
2022-12-31T04:37:42.741Z,9.59
2022-12-31T04:40:10.306Z,9.61
2022-12-31T04:42:37.681Z,9.55
2022-12-31T04:45:06.085Z,9.39
2022-12-31T04:47:33.424Z,9.52
2022-12-31T04:50:00.862Z,9.55
2022-12-31T04:52:28.207Z,9.23
2022-12-31T04:54:55.564Z,9.40
2022-12-31T04:57:23.785Z,9.36
2022-12-31T04:59:51.629Z,9.36
2022-12-31T05:02:19.935Z,9.50
2022-12-31T05:04:47.431Z,9.39
2022-12-31T05:07:14.889Z,9.43
2022-12-31T05:09:42.717Z,9.25
2022-12-31T05:12:10.522Z,9.39
2022-12-31T05:14:37.805Z,9.36
2022-12-31T05:17:05.180Z,9.44
2022-12-31T05:19:32.826Z,9.55
2022-12-31T05:22:19.242Z,9.66
2022-12-31T05:24:46.589Z,9.60
2022-12-31T05:27:15.654Z,9.45
2022-12-31T05:29:42.929Z,9.49
2022-12-31T05:32:10.748Z,9.53
2022-12-31T05:34:38.201Z,9.45
2022-12-31T05:37:05.572Z,9.57
2022-12-31T05:39:32.942Z,9.52
2022-12-31T05:42:00.708Z,9.45
2022-12-31T05:44:28.451Z,9.54
2022-12-31T05:46:55.727Z,9.65
2022-12-31T05:49:23.031Z,9.73
2022-12-31T05:51:50.524Z,9.71
2022-12-31T05:54:17.884Z,9.54
2022-12-31T05:56:45.863Z,9.50
2022-12-31T05:59:14.268Z,9.51
2022-12-31T06:01:41.915Z,9.51
2022-12-31T06:04:10.297Z,9.53
2022-12-31T06:06:37.869Z,9.49
2022-12-31T06:09:06.363Z,9.57
2022-12-31T06:11:34.090Z,9.67
2022-12-31T06:14:01.788Z,9.65
2022-12-31T06:16:29.942Z,9.58
2022-12-31T06:18:57.460Z,9.62
2022-12-31T06:21:25.284Z,9.77
2022-12-31T06:23:52.830Z,9.74
2022-12-31T06:26:20.154Z,9.69
2022-12-31T06:28:47.490Z,9.56
2022-12-31T06:31:15.279Z,9.38
2022-12-31T06:33:42.812Z,9.51
2022-12-31T06:36:12.815Z,9.53
2022-12-31T06:38:41.170Z,9.63
2022-12-31T06:41:10.494Z,9.68
2022-12-31T06:43:39.010Z,9.62
2022-12-31T06:46:08.509Z,9.59
2022-12-31T06:48:37.171Z,9.70
2022-12-31T06:51:25.229Z,9.80
2022-12-31T06:53:52.736Z,9.79
2022-12-31T06:56:24.247Z,9.79
2022-12-31T06:58:55.812Z,9.55
2022-12-31T07:01:34.396Z,9.46
2022-12-31T07:04:02.453Z,9.58
2022-12-31T07:06:41.288Z,9.72
2022-12-31T07:09:14.123Z,9.66
2022-12-31T07:12:05.113Z,9.63
2022-12-31T07:14:32.489Z,9.70
2022-12-31T07:17:09.471Z,9.97
2022-12-31T07:20:06.387Z,9.86
2022-12-31T07:22:34.306Z,9.87
2022-12-31T07:25:01.994Z,9.92
2022-12-31T07:27:38.780Z,9.52
2022-12-31T07:30:15.340Z,9.91
2022-12-31T07:32:42.617Z,9.96
2022-12-31T07:35:22.106Z,9.61
2022-12-31T07:37:55.058Z,9.89
2022-12-31T07:40:48.660Z,9.82
2022-12-31T07:43:25.370Z,9.75
2022-12-31T07:46:05.772Z,10.10
2022-12-31T07:48:33.388Z,9.92
2022-12-31T07:51:00.880Z,9.69
2022-12-31T07:53:29.083Z,9.68
2022-12-31T07:55:58.726Z,9.72
2022-12-31T07:58:41.718Z,9.99
2022-12-31T08:01:11.855Z,10.22
2022-12-31T08:03:51.848Z,9.70
2022-12-31T08:06:19.430Z,10.02
2022-12-31T08:08:53.278Z,10.17
2022-12-31T08:11:38.089Z,10.20
2022-12-31T08:14:09.388Z,10.37
2022-12-31T08:16:36.979Z,10.28
2022-12-31T08:19:04.748Z,10.17
2022-12-31T08:21:38.656Z,10.42
2022-12-31T08:24:09.164Z,10.56
2022-12-31T08:26:56.002Z,10.60
2022-12-31T08:29:40.161Z,10.30
2022-12-31T08:32:26.366Z,10.38
2022-12-31T08:35:13.219Z,10.49
2022-12-31T08:37:43.917Z,9.85
2022-12-31T08:40:17.978Z,10.07
2022-12-31T08:43:01.751Z,10.15
2022-12-31T08:45:33.877Z,10.31
2022-12-31T08:48:04.321Z,10.51
2022-12-31T08:50:32.430Z,10.42
2022-12-31T08:53:00.154Z,10.48
2022-12-31T08:55:28.047Z,10.76
2022-12-31T08:58:01.266Z,10.91
2022-12-31T09:00:28.905Z,10.88
2022-12-31T09:02:59.660Z,10.93
2022-12-31T09:05:27.000Z,10.81
2022-12-31T09:07:54.357Z,10.68
2022-12-31T09:10:25.982Z,10.44
2022-12-31T09:13:01.598Z,10.41
2022-12-31T09:15:42.514Z,10.45
2022-12-31T09:18:12.347Z,10.62
2022-12-31T09:20:44.346Z,10.64
2022-12-31T09:23:13.523Z,10.97
2022-12-31T09:26:01.176Z,11.02
2022-12-31T09:28:39.684Z,11.00
2022-12-31T09:31:19.639Z,10.98
2022-12-31T09:33:56.300Z,10.89
2022-12-31T09:36:28.356Z,10.84
2022-12-31T09:39:16.856Z,10.82
2022-12-31T09:41:53.742Z,11.06
2022-12-31T09:44:36.424Z,11.32
2022-12-31T09:47:18.592Z,11.25
2022-12-31T09:49:55.615Z,11.42
2022-12-31T09:52:29.872Z,11.71
2022-12-31T09:54:59.900Z,11.47
2022-12-31T09:57:33.239Z,11.52
2022-12-31T10:00:23.862Z,11.17
2022-12-31T10:02:58.623Z,11.02
2022-12-31T10:05:38.376Z,11.04
2022-12-31T10:08:34.839Z,11.20
2022-12-31T10:11:16.918Z,11.44
2022-12-31T10:13:51.483Z,11.34
2022-12-31T10:16:21.839Z,11.40
2022-12-31T10:18:55.717Z,11.44
2022-12-31T10:21:41.697Z,11.48
2022-12-31T10:24:30.364Z,11.37
2022-12-31T10:27:14.339Z,11.34
2022-12-31T10:29:48.195Z,11.58
2022-12-31T10:32:17.340Z,11.85
2022-12-31T10:34:54.036Z,11.93
2022-12-31T10:37:27.630Z,12.04
2022-12-31T10:40:13.293Z,12.24
2022-12-31T10:42:55.825Z,12.18
2022-12-31T10:45:23.293Z,12.32
2022-12-31T10:48:10.693Z,12.11
2022-12-31T10:50:56.645Z,12.40
2022-12-31T10:53:30.328Z,12.42
2022-12-31T10:56:16.586Z,12.29
2022-12-31T10:58:50.133Z,12.39
2022-12-31T11:01:22.224Z,12.48
2022-12-31T11:03:49.566Z,12.56
2022-12-31T11:06:17.060Z,12.92
2022-12-31T11:09:03.399Z,12.67
2022-12-31T11:11:34.193Z,12.74
2022-12-31T11:14:20.139Z,12.90
2022-12-31T11:16:47.468Z,13.00
2022-12-31T11:19:32.930Z,13.00
2022-12-31T11:22:26.058Z,12.54
2022-12-31T11:25:02.884Z,12.83
2022-12-31T11:27:36.530Z,12.87
2022-12-31T11:30:13.081Z,12.62
2022-12-31T11:32:57.357Z,12.71
2022-12-31T11:35:31.263Z,12.62
2022-12-31T11:38:09.336Z,12.55
2022-12-31T11:40:44.218Z,12.42
2022-12-31T11:43:20.152Z,12.58
2022-12-31T11:46:07.114Z,12.34
2022-12-31T11:48:53.846Z,12.44
2022-12-31T11:51:21.168Z,12.37
2022-12-31T11:54:03.762Z,12.50
2022-12-31T11:56:34.688Z,12.80
2022-12-31T11:59:07.582Z,12.49
2022-12-31T12:01:46.067Z,12.55
2022-12-31T12:04:13.399Z,12.69
2022-12-31T12:06:40.923Z,12.79
2022-12-31T12:09:13.609Z,12.78
2022-12-31T12:11:41.503Z,12.74
2022-12-31T12:14:27.368Z,12.95
2022-12-31T12:17:00.837Z,13.11
2022-12-31T12:19:32.978Z,12.97
2022-12-31T12:22:09.232Z,13.34
2022-12-31T12:24:37.492Z,13.17
2022-12-31T12:27:05.564Z,13.08
2022-12-31T12:29:34.639Z,12.53
2022-12-31T12:32:04.807Z,12.88
2022-12-31T12:34:34.017Z,13.05
2022-12-31T12:37:01.871Z,13.32
2022-12-31T12:39:32.683Z,13.63
2022-12-31T12:42:04.853Z,13.72
2022-12-31T12:44:33.280Z,13.41
2022-12-31T12:47:02.651Z,13.26
2022-12-31T12:49:38.750Z,13.54
2022-12-31T12:52:24.777Z,13.77
2022-12-31T12:55:10.649Z,13.49
2022-12-31T12:58:07.192Z,13.36
2022-12-31T13:00:51.803Z,13.49
2022-12-31T13:03:44.648Z,13.24
2022-12-31T13:06:46.327Z,13.66
2022-12-31T13:09:30.441Z,13.79
2022-12-31T13:12:08.114Z,14.14
2022-12-31T13:14:35.425Z,13.41
2022-12-31T13:17:22.979Z,13.34
2022-12-31T13:19:57.055Z,12.80
2022-12-31T13:22:43.687Z,12.89
2022-12-31T13:25:23.685Z,13.27
2022-12-31T13:27:54.750Z,13.42
2022-12-31T13:30:24.089Z,13.54
2022-12-31T13:33:01.196Z,13.33
2022-12-31T13:35:40.653Z,13.41
2022-12-31T13:38:17.257Z,13.31
2022-12-31T13:40:45.187Z,13.37
2022-12-31T13:43:22.427Z,13.30
2022-12-31T13:45:54.639Z,13.13
2022-12-31T13:48:25.313Z,13.02
2022-12-31T13:50:57.729Z,13.08
2022-12-31T13:53:37.547Z,13.00
2022-12-31T13:56:12.634Z,12.88
2022-12-31T13:58:50.459Z,12.99
2022-12-31T14:01:37.211Z,13.07
2022-12-31T14:04:07.536Z,12.57
2022-12-31T14:06:50.184Z,12.79
2022-12-31T14:09:28.953Z,12.88
2022-12-31T14:12:08.646Z,12.77
2022-12-31T14:14:42.153Z,12.78
2022-12-31T14:17:10.391Z,12.76
2022-12-31T14:19:57.339Z,12.27
2022-12-31T14:22:30.526Z,12.34
2022-12-31T14:25:00.454Z,12.35
2022-12-31T14:27:39.611Z,12.13
2022-12-31T14:30:15.579Z,12.23
2022-12-31T14:33:01.503Z,12.24
2022-12-31T14:35:31.927Z,12.01
2022-12-31T14:38:05.740Z,12.11
2022-12-31T14:40:54.215Z,12.14
2022-12-31T14:43:40.091Z,12.08
2022-12-31T14:46:25.714Z,12.20
2022-12-31T14:48:56.367Z,12.24
2022-12-31T14:51:28.114Z,12.22
2022-12-31T14:53:56.988Z,12.28
2022-12-31T14:56:40.711Z,12.20
2022-12-31T14:59:26.911Z,12.22
2022-12-31T15:01:55.525Z,12.19
2022-12-31T15:04:33.551Z,12.27
2022-12-31T15:07:25.540Z,11.90
2022-12-31T15:10:12.482Z,11.69
2022-12-31T15:12:43.425Z,11.71
2022-12-31T15:15:33.277Z,11.71
2022-12-31T15:18:07.593Z,11.82
2022-12-31T15:20:35.105Z,11.71
2022-12-31T15:23:02.935Z,11.73
2022-12-31T15:25:38.448Z,11.69
2022-12-31T15:28:22.627Z,11.51
2022-12-31T15:30:50.604Z,11.57
2022-12-31T15:33:32.079Z,11.62
2022-12-31T15:36:10.601Z,11.57
2022-12-31T15:38:38.717Z,11.54
2022-12-31T15:41:25.690Z,11.71
2022-12-31T15:43:59.660Z,11.63
2022-12-31T15:46:29.128Z,11.55
2022-12-31T15:49:04.947Z,11.57
2022-12-31T15:51:43.762Z,11.57
2022-12-31T15:54:29.837Z,11.33
2022-12-31T15:56:57.544Z,11.12
2022-12-31T15:59:26.933Z,11.15
2022-12-31T16:01:58.418Z,11.33
2022-12-31T16:04:29.944Z,11.54
2022-12-31T16:07:01.491Z,11.46
2022-12-31T16:09:34.764Z,11.38
2022-12-31T16:12:09.835Z,11.59
2022-12-31T16:14:44.921Z,11.66
2022-12-31T16:17:29.401Z,11.69
2022-12-31T16:19:58.562Z,11.82
2022-12-31T16:22:29.837Z,11.85
2022-12-31T16:27:46.479Z,11.80
2022-12-31T16:30:30.627Z,11.79
2022-12-31T16:32:59.487Z,11.79
2022-12-31T16:35:31.183Z,11.87
2022-12-31T16:38:02.399Z,11.77
2022-12-31T16:40:30.310Z,11.69
2022-12-31T16:42:57.726Z,11.76
2022-12-31T16:45:25.071Z,11.76
2022-12-31T16:47:53.715Z,11.85
2022-12-31T16:50:22.202Z,11.76
2022-12-31T16:52:50.754Z,11.75
2022-12-31T16:55:20.661Z,11.69
2022-12-31T16:57:54.076Z,11.63
2022-12-31T17:00:23.848Z,11.66
2022-12-31T17:02:57.367Z,11.55
2022-12-31T17:05:26.820Z,11.75
2022-12-31T17:07:54.729Z,11.67
2022-12-31T17:10:24.706Z,11.64
2022-12-31T17:15:45.297Z,11.67
2022-12-31T17:18:18.183Z,11.74
2022-12-31T17:20:46.531Z,11.65
2022-12-31T17:23:22.749Z,11.62
2022-12-31T17:25:57.371Z,11.79
2022-12-31T17:28:25.692Z,11.81
2022-12-31T17:31:13.428Z,11.85
2022-12-31T17:33:41.833Z,11.82
2022-12-31T17:36:21.717Z,11.86
2022-12-31T17:38:49.144Z,11.87
2022-12-31T17:41:24.535Z,11.82
2022-12-31T17:43:54.424Z,11.85
2022-12-31T17:46:23.327Z,11.71
2022-12-31T17:48:53.098Z,11.82
2022-12-31T17:51:24.387Z,11.81
2022-12-31T17:53:54.346Z,11.77
2022-12-31T17:56:22.200Z,11.86
2022-12-31T17:58:51.506Z,11.82
2022-12-31T18:01:20.776Z,11.85
2022-12-31T18:03:49.108Z,11.79
2022-12-31T18:06:19.592Z,11.78
2022-12-31T18:08:48.082Z,11.88
2022-12-31T18:11:20.135Z,11.88
2022-12-31T18:13:47.833Z,11.92
2022-12-31T18:16:15.583Z,11.95
2022-12-31T18:18:45.542Z,11.96
2022-12-31T18:21:16.833Z,11.84
2022-12-31T18:23:48.518Z,11.88
2022-12-31T18:26:17.532Z,11.90
2022-12-31T18:28:45.223Z,11.80
2022-12-31T18:31:20.785Z,11.77
2022-12-31T18:33:49.158Z,11.88
2022-12-31T18:36:17.353Z,11.90
2022-12-31T18:38:44.894Z,11.90
2022-12-31T18:41:20.453Z,11.85
2022-12-31T18:43:47.832Z,11.83
2022-12-31T18:46:16.825Z,11.79
2022-12-31T18:48:44.604Z,11.84
2022-12-31T18:51:16.322Z,11.90
2022-12-31T18:53:43.747Z,11.87
2022-12-31T18:56:13.135Z,11.89
2022-12-31T18:58:40.561Z,11.85
2022-12-31T19:01:28.584Z,11.85
2022-12-31T19:03:58.206Z,11.87
2022-12-31T19:06:26.117Z,11.84
2022-12-31T19:08:53.508Z,11.83
2022-12-31T19:11:21.634Z,11.76
2022-12-31T19:13:49.555Z,11.73
2022-12-31T19:16:18.106Z,11.74
2022-12-31T19:18:47.491Z,11.81
2022-12-31T19:21:19.673Z,11.85
2022-12-31T19:23:47.109Z,11.92
2022-12-31T19:26:21.846Z,11.95
2022-12-31T19:28:50.317Z,12.04
2022-12-31T19:31:18.274Z,11.97
2022-12-31T19:33:46.307Z,11.94
2022-12-31T19:36:15.327Z,11.92
2022-12-31T19:38:43.144Z,11.90
2022-12-31T19:41:15.120Z,11.69
2022-12-31T19:43:42.488Z,11.69
2022-12-31T19:46:14.563Z,11.72
2022-12-31T19:48:42.707Z,11.77
2022-12-31T19:51:12.035Z,11.78
2022-12-31T19:53:39.605Z,11.74
2022-12-31T19:56:07.182Z,11.79
2022-12-31T19:58:34.541Z,11.85
2022-12-31T20:01:03.336Z,11.85
2022-12-31T20:03:32.540Z,11.75
2022-12-31T20:06:05.644Z,11.71
2022-12-31T20:08:33.402Z,11.73
2022-12-31T20:11:15.357Z,11.65
2022-12-31T20:13:42.989Z,11.59
2022-12-31T20:16:12.897Z,11.49
2022-12-31T20:18:41.014Z,11.49
2022-12-31T20:21:09.867Z,11.50
2022-12-31T20:23:37.578Z,11.35
2022-12-31T20:26:04.911Z,11.34
2022-12-31T20:28:32.437Z,11.58
2022-12-31T20:31:04.272Z,11.60
2022-12-31T20:33:32.725Z,11.69
2022-12-31T20:36:04.485Z,11.67
2022-12-31T20:38:31.957Z,11.64
2022-12-31T20:41:06.787Z,11.70
2022-12-31T20:43:34.563Z,11.68
2022-12-31T20:46:14.941Z,11.70
2022-12-31T20:48:44.088Z,11.67
2022-12-31T20:51:12.435Z,11.68
2022-12-31T20:53:40.708Z,11.66
2022-12-31T20:56:09.600Z,11.69
2022-12-31T20:58:37.574Z,11.58
2022-12-31T21:01:09.153Z,11.54
2022-12-31T21:06:29.296Z,11.62
2022-12-31T21:08:57.678Z,11.77
2022-12-31T21:11:43.534Z,11.77
2022-12-31T21:14:10.928Z,11.73
2022-12-31T21:16:38.384Z,11.75
2022-12-31T21:19:06.008Z,11.78
2022-12-31T21:21:34.379Z,11.74
2022-12-31T21:24:02.446Z,11.71
2022-12-31T21:26:30.772Z,11.82
2022-12-31T21:28:58.939Z,11.79
2022-12-31T21:31:26.578Z,11.80
2022-12-31T21:33:55.420Z,11.78
2022-12-31T21:36:23.381Z,11.77
2022-12-31T21:38:50.760Z,11.78
2022-12-31T21:41:37.414Z,11.79
2022-12-31T21:44:05.406Z,11.86
2022-12-31T21:46:32.841Z,11.86
2022-12-31T21:49:00.559Z,11.88
2022-12-31T21:51:29.022Z,11.82
2022-12-31T21:53:57.179Z,11.77
2022-12-31T21:56:24.482Z,11.69
2022-12-31T21:59:12.466Z,11.73
2022-12-31T22:01:59.050Z,11.77
2022-12-31T22:07:14.538Z,11.70
2022-12-31T22:09:42.324Z,11.67
2022-12-31T22:12:10.163Z,11.60
2022-12-31T22:14:37.531Z,11.68
2022-12-31T22:17:05.407Z,11.74
2022-12-31T22:19:39.291Z,11.69
2022-12-31T22:22:20.708Z,11.62
2022-12-31T22:24:48.580Z,11.56
2022-12-31T22:27:28.096Z,11.51
2022-12-31T22:29:57.194Z,11.38
2022-12-31T22:32:24.535Z,11.38
2022-12-31T22:34:51.955Z,11.52
2022-12-31T22:37:54.806Z,11.49
2022-12-31T22:40:07.313Z,11.64
2022-12-31T22:42:34.987Z,11.62
2022-12-31T22:45:02.728Z,11.68
2022-12-31T22:47:30.194Z,11.76
2022-12-31T22:49:57.509Z,11.75
2022-12-31T22:52:25.272Z,11.65
2022-12-31T22:54:53.029Z,11.53
2022-12-31T22:57:20.517Z,11.56
2022-12-31T22:59:47.990Z,11.60
2022-12-31T23:02:16.512Z,11.56
2022-12-31T23:04:43.918Z,11.54
2022-12-31T23:07:11.670Z,11.43
2022-12-31T23:09:57.909Z,11.35
2022-12-31T23:12:25.209Z,11.34
2022-12-31T23:15:12.144Z,11.30
2022-12-31T23:17:58.250Z,11.24
2022-12-31T23:20:44.933Z,11.09
2022-12-31T23:23:14.419Z,11.32
2022-12-31T23:25:46.711Z,11.22
2022-12-31T23:28:17.818Z,11.25
2022-12-31T23:30:45.878Z,11.20
2022-12-31T23:33:15.984Z,11.05
2022-12-31T23:35:43.611Z,11.02
2022-12-31T23:38:12.328Z,11.12
2022-12-31T23:40:39.761Z,11.18
2022-12-31T23:43:08.401Z,11.13
2022-12-31T23:45:36.395Z,11.14
2022-12-31T23:48:03.879Z,11.15
2022-12-31T23:50:31.823Z,11.13
2022-12-31T23:52:59.281Z,11.10
2022-12-31T23:55:27.207Z,11.01
2022-12-31T23:57:55.256Z,11.04
